sensor_id;sensor_type;location;lat;lon;timestamp;temperature;humidity
62072;DHT22;48031;48.542;13.232;2022-08-05T00:01:26;23.50;1.00
62072;DHT22;48031;48.542;13.232;2022-08-05T00:03:54;23.10;1.00
62072;DHT22;48031;48.542;13.232;2022-08-05T00:06:23;21.90;1.00
62072;DHT22;48031;48.542;13.232;2022-08-05T00:11:26;23.00;1.00
62072;DHT22;48031;48.542;13.232;2022-08-05T00:14:00;21.10;1.00
62072;DHT22;48031;48.542;13.232;2022-08-05T00:16:37;22.20;1.00
62072;DHT22;48031;48.542;13.232;2022-08-05T00:19:22;21.80;1.00
62072;DHT22;48031;48.542;13.232;2022-08-05T00:22:06;22.50;1.00
62072;DHT22;48031;48.542;13.232;2022-08-05T00:24:37;21.30;1.00
62072;DHT22;48031;48.542;13.232;2022-08-05T00:27:08;21.40;1.00
62072;DHT22;48031;48.542;13.232;2022-08-05T00:29:41;22.30;1.00
62072;DHT22;48031;48.542;13.232;2022-08-05T00:32:08;19.50;1.00
62072;DHT22;48031;48.542;13.232;2022-08-05T00:34:42;20.00;1.00
62072;DHT22;48031;48.542;13.232;2022-08-05T00:37:29;22.20;1.00
62072;DHT22;48031;48.542;13.232;2022-08-05T00:40:16;21.70;1.00
62072;DHT22;48031;48.542;13.232;2022-08-05T00:42:55;21.60;1.00
62072;DHT22;48031;48.542;13.232;2022-08-05T00:47:54;22.40;1.00
62072;DHT22;48031;48.542;13.232;2022-08-05T00:50:23;21.60;1.00
62072;DHT22;48031;48.542;13.232;2022-08-05T00:52:51;23.10;1.00
62072;DHT22;48031;48.542;13.232;2022-08-05T00:55:21;23.00;1.00
62072;DHT22;48031;48.542;13.232;2022-08-05T00:57:48;23.00;1.00
62072;DHT22;48031;48.542;13.232;2022-08-05T01:00:28;23.10;1.00
62072;DHT22;48031;48.542;13.232;2022-08-05T01:02:55;20.90;1.00
62072;DHT22;48031;48.542;13.232;2022-08-05T01:07:50;19.60;1.00
62072;DHT22;48031;48.542;13.232;2022-08-05T01:16:29;19.90;1.00
62072;DHT22;48031;48.542;13.232;2022-08-05T01:19:09;21.60;1.00
62072;DHT22;48031;48.542;13.232;2022-08-05T01:24:21;19.70;1.00
62072;DHT22;48031;48.542;13.232;2022-08-05T01:29:18;18.70;1.00
62072;DHT22;48031;48.542;13.232;2022-08-05T01:31:50;20.20;1.00
62072;DHT22;48031;48.542;13.232;2022-08-05T01:34:21;21.80;1.00
62072;DHT22;48031;48.542;13.232;2022-08-05T01:39:50;19.00;1.00
62072;DHT22;48031;48.542;13.232;2022-08-05T01:42:25;20.40;1.00
62072;DHT22;48031;48.542;13.232;2022-08-05T01:44:53;18.80;1.00
62072;DHT22;48031;48.542;13.232;2022-08-05T01:47:21;22.10;1.00
62072;DHT22;48031;48.542;13.232;2022-08-05T01:49:51;18.80;1.00
62072;DHT22;48031;48.542;13.232;2022-08-05T01:52:28;18.60;1.00
62072;DHT22;48031;48.542;13.232;2022-08-05T01:54:58;20.80;1.00
62072;DHT22;48031;48.542;13.232;2022-08-05T01:57:31;19.00;1.00
62072;DHT22;48031;48.542;13.232;2022-08-05T02:00:18;20.70;1.00
62072;DHT22;48031;48.542;13.232;2022-08-05T02:02:59;18.90;1.00
62072;DHT22;48031;48.542;13.232;2022-08-05T02:05:30;21.20;1.00
62072;DHT22;48031;48.542;13.232;2022-08-05T02:08:01;22.50;1.00
62072;DHT22;48031;48.542;13.232;2022-08-05T02:10:33;21.60;1.00
62072;DHT22;48031;48.542;13.232;2022-08-05T02:13:04;21.10;1.00
62072;DHT22;48031;48.542;13.232;2022-08-05T02:15:46;22.30;1.00
62072;DHT22;48031;48.542;13.232;2022-08-05T02:18:19;22.20;1.00
62072;DHT22;48031;48.542;13.232;2022-08-05T02:21:16;21.70;1.00
62072;DHT22;48031;48.542;13.232;2022-08-05T02:23:45;21.20;1.00
62072;DHT22;48031;48.542;13.232;2022-08-05T02:26:15;19.00;1.00
62072;DHT22;48031;48.542;13.232;2022-08-05T02:28:47;19.90;1.00
62072;DHT22;48031;48.542;13.232;2022-08-05T02:31:20;18.40;1.00
62072;DHT22;48031;48.542;13.232;2022-08-05T02:33:58;21.10;1.00
62072;DHT22;48031;48.542;13.232;2022-08-05T02:36:27;19.60;1.00
62072;DHT22;48031;48.542;13.232;2022-08-05T02:38:57;20.60;1.00
62072;DHT22;48031;48.542;13.232;2022-08-05T02:41:26;18.60;1.00
62072;DHT22;48031;48.542;13.232;2022-08-05T02:44:02;21.30;1.00
62072;DHT22;48031;48.542;13.232;2022-08-05T02:46:39;22.20;1.00
62072;DHT22;48031;48.542;13.232;2022-08-05T02:49:19;20.60;1.00
62072;DHT22;48031;48.542;13.232;2022-08-05T02:51:48;18.40;1.00
62072;DHT22;48031;48.542;13.232;2022-08-05T02:54:30;18.20;1.00
62072;DHT22;48031;48.542;13.232;2022-08-05T02:57:04;21.10;1.00
62072;DHT22;48031;48.542;13.232;2022-08-05T02:59:52;18.10;1.00
62072;DHT22;48031;48.542;13.232;2022-08-05T03:02:21;22.10;1.00
62072;DHT22;48031;48.542;13.232;2022-08-05T03:04:53;21.00;1.00
62072;DHT22;48031;48.542;13.232;2022-08-05T03:07:20;19.20;1.00
62072;DHT22;48031;48.542;13.232;2022-08-05T03:10:08;21.40;1.00
62072;DHT22;48031;48.542;13.232;2022-08-05T03:12:36;21.30;1.00
62072;DHT22;48031;48.542;13.232;2022-08-05T03:15:05;21.90;1.00
62072;DHT22;48031;48.542;13.232;2022-08-05T03:17:35;18.80;1.00
62072;DHT22;48031;48.542;13.232;2022-08-05T03:20:08;20.90;1.00
62072;DHT22;48031;48.542;13.232;2022-08-05T03:22:36;21.40;1.00
62072;DHT22;48031;48.542;13.232;2022-08-05T03:25:12;17.40;1.00
62072;DHT22;48031;48.542;13.232;2022-08-05T03:28:04;19.70;1.00
62072;DHT22;48031;48.542;13.232;2022-08-05T03:30:31;17.50;1.00
62072;DHT22;48031;48.542;13.232;2022-08-05T03:33:00;21.70;1.00
62072;DHT22;48031;48.542;13.232;2022-08-05T03:35:29;17.80;1.00
62072;DHT22;48031;48.542;13.232;2022-08-05T03:37:59;18.70;1.00
62072;DHT22;48031;48.542;13.232;2022-08-05T03:40:27;18.20;1.00
62072;DHT22;48031;48.542;13.232;2022-08-05T03:42:58;20.30;1.00
62072;DHT22;48031;48.542;13.232;2022-08-05T03:45:46;18.90;1.00
62072;DHT22;48031;48.542;13.232;2022-08-05T03:48:27;20.40;1.00
62072;DHT22;48031;48.542;13.232;2022-08-05T03:54:06;20.90;1.00
62072;DHT22;48031;48.542;13.232;2022-08-05T03:56:54;20.30;1.00
62072;DHT22;48031;48.542;13.232;2022-08-05T03:59:38;21.90;1.00
62072;DHT22;48031;48.542;13.232;2022-08-05T04:02:21;20.80;1.00
62072;DHT22;48031;48.542;13.232;2022-08-05T04:05:04;21.70;1.00
62072;DHT22;48031;48.542;13.232;2022-08-05T04:07:37;18.20;1.00
62072;DHT22;48031;48.542;13.232;2022-08-05T04:10:25;19.30;1.00
62072;DHT22;48031;48.542;13.232;2022-08-05T04:12:54;18.80;1.00
62072;DHT22;48031;48.542;13.232;2022-08-05T04:15:25;20.60;1.30
62072;DHT22;48031;48.542;13.232;2022-08-05T04:18:04;18.00;1.00
62072;DHT22;48031;48.542;13.232;2022-08-05T04:20:33;19.60;1.00
62072;DHT22;48031;48.542;13.232;2022-08-05T04:23:01;18.30;1.00
62072;DHT22;48031;48.542;13.232;2022-08-05T04:25:29;18.30;1.00
62072;DHT22;48031;48.542;13.232;2022-08-05T04:28:17;18.70;1.00
62072;DHT22;48031;48.542;13.232;2022-08-05T04:30:45;21.00;2.30
62072;DHT22;48031;48.542;13.232;2022-08-05T04:33:14;22.10;2.00
62072;DHT22;48031;48.542;13.232;2022-08-05T04:35:46;21.60;1.40
62072;DHT22;48031;48.542;13.232;2022-08-05T04:38:34;20.30;1.00
62072;DHT22;48031;48.542;13.232;2022-08-05T04:41:06;18.20;1.00
62072;DHT22;48031;48.542;13.232;2022-08-05T04:43:36;21.10;1.30
62072;DHT22;48031;48.542;13.232;2022-08-05T04:46:14;22.20;1.00
62072;DHT22;48031;48.542;13.232;2022-08-05T04:48:54;22.20;1.00
62072;DHT22;48031;48.542;13.232;2022-08-05T04:51:24;19.00;1.00
62072;DHT22;48031;48.542;13.232;2022-08-05T04:53:56;21.60;1.60
62072;DHT22;48031;48.542;13.232;2022-08-05T04:56:27;18.30;1.00
62072;DHT22;48031;48.542;13.232;2022-08-05T04:59:02;21.50;2.50
62072;DHT22;48031;48.542;13.232;2022-08-05T05:01:48;20.40;1.30
62072;DHT22;48031;48.542;13.232;2022-08-05T05:04:36;21.40;2.30
62072;DHT22;48031;48.542;13.232;2022-08-05T05:07:04;21.10;1.00
62072;DHT22;48031;48.542;13.232;2022-08-05T05:09:35;22.20;2.60
62072;DHT22;48031;48.542;13.232;2022-08-05T05:12:04;22.10;4.80
62072;DHT22;48031;48.542;13.232;2022-08-05T05:14:32;19.30;5.00
62072;DHT22;48031;48.542;13.232;2022-08-05T05:17:02;22.20;3.70
62072;DHT22;48031;48.542;13.232;2022-08-05T05:19:33;19.00;4.10
62072;DHT22;48031;48.542;13.232;2022-08-05T05:22:10;21.40;7.40
62072;DHT22;48031;48.542;13.232;2022-08-05T05:24:50;22.20;5.70
62072;DHT22;48031;48.542;13.232;2022-08-05T05:27:26;20.90;4.70
62072;DHT22;48031;48.542;13.232;2022-08-05T05:30:13;21.30;4.10
62072;DHT22;48031;48.542;13.232;2022-08-05T05:32:54;21.50;3.70
62072;DHT22;48031;48.542;13.232;2022-08-05T05:35:22;20.20;1.00
62072;DHT22;48031;48.542;13.232;2022-08-05T05:37:54;18.40;1.00
62072;DHT22;48031;48.542;13.232;2022-08-05T05:40:28;22.60;2.60
62072;DHT22;48031;48.542;13.232;2022-08-05T05:42:58;21.40;2.20
62072;DHT22;48031;48.542;13.232;2022-08-05T05:45:27;21.80;1.00
62072;DHT22;48031;48.542;13.232;2022-08-05T05:47:56;21.80;1.00
62072;DHT22;48031;48.542;13.232;2022-08-05T05:50:34;18.90;1.00
62072;DHT22;48031;48.542;13.232;2022-08-05T05:53:13;19.80;1.00
62072;DHT22;48031;48.542;13.232;2022-08-05T05:55:48;21.90;1.70
62072;DHT22;48031;48.542;13.232;2022-08-05T05:58:27;22.40;3.20
62072;DHT22;48031;48.542;13.232;2022-08-05T06:00:57;19.60;1.00
62072;DHT22;48031;48.542;13.232;2022-08-05T06:03:39;21.40;1.00
62072;DHT22;48031;48.542;13.232;2022-08-05T06:06:26;23.20;1.00
62072;DHT22;48031;48.542;13.232;2022-08-05T06:08:59;22.00;1.00
62072;DHT22;48031;48.542;13.232;2022-08-05T06:11:26;23.30;1.70
62072;DHT22;48031;48.542;13.232;2022-08-05T06:13:55;19.30;1.00
62072;DHT22;48031;48.542;13.232;2022-08-05T06:16:22;23.40;1.00
62072;DHT22;48031;48.542;13.232;2022-08-05T06:18:56;19.90;1.00
62072;DHT22;48031;48.542;13.232;2022-08-05T06:21:26;19.50;1.00
62072;DHT22;48031;48.542;13.232;2022-08-05T06:24:04;23.00;1.00
62072;DHT22;48031;48.542;13.232;2022-08-05T06:26:33;22.70;1.00
62072;DHT22;48031;48.542;13.232;2022-08-05T06:29:01;24.00;1.00
62072;DHT22;48031;48.542;13.232;2022-08-05T06:31:46;24.10;1.00
62072;DHT22;48031;48.542;13.232;2022-08-05T06:34:16;22.50;1.00
62072;DHT22;48031;48.542;13.232;2022-08-05T06:36:45;21.40;1.00
62072;DHT22;48031;48.542;13.232;2022-08-05T06:39:24;20.60;1.00
62072;DHT22;48031;48.542;13.232;2022-08-05T06:41:59;22.30;1.00
62072;DHT22;48031;48.542;13.232;2022-08-05T06:44:30;24.40;1.00
62072;DHT22;48031;48.542;13.232;2022-08-05T06:46:57;23.70;1.00
62072;DHT22;48031;48.542;13.232;2022-08-05T06:49:28;24.30;1.00
62072;DHT22;48031;48.542;13.232;2022-08-05T06:52:15;24.70;1.00
62072;DHT22;48031;48.542;13.232;2022-08-05T06:55:02;23.80;1.00
62072;DHT22;48031;48.542;13.232;2022-08-05T06:57:29;24.20;1.00
62072;DHT22;48031;48.542;13.232;2022-08-05T07:00:16;21.90;1.00
62072;DHT22;48031;48.542;13.232;2022-08-05T07:02:50;24.20;1.00
62072;DHT22;48031;48.542;13.232;2022-08-05T07:05:19;24.70;1.00
62072;DHT22;48031;48.542;13.232;2022-08-05T07:08:02;23.90;1.00
62072;DHT22;48031;48.542;13.232;2022-08-05T07:10:29;25.20;1.00
62072;DHT22;48031;48.542;13.232;2022-08-05T07:12:58;21.70;1.00
62072;DHT22;48031;48.542;13.232;2022-08-05T07:16:03;25.00;1.00
62072;DHT22;48031;48.542;13.232;2022-08-05T07:19:09;24.60;1.00
62072;DHT22;48031;48.542;13.232;2022-08-05T07:21:41;24.60;1.00
62072;DHT22;48031;48.542;13.232;2022-08-05T07:24:26;22.00;1.00
62072;DHT22;48031;48.542;13.232;2022-08-05T07:26:55;22.30;1.00
62072;DHT22;48031;48.542;13.232;2022-08-05T07:29:22;22.30;1.00
62072;DHT22;48031;48.542;13.232;2022-08-05T07:32:09;24.90;1.00
62072;DHT22;48031;48.542;13.232;2022-08-05T07:34:40;25.90;1.00
62072;DHT22;48031;48.542;13.232;2022-08-05T07:37:08;26.00;1.00
62072;DHT22;48031;48.542;13.232;2022-08-05T07:39:37;25.60;1.00
62072;DHT22;48031;48.542;13.232;2022-08-05T07:42:24;23.00;1.00
62072;DHT22;48031;48.542;13.232;2022-08-05T07:44:59;24.40;1.00
62072;DHT22;48031;48.542;13.232;2022-08-05T07:47:26;25.40;1.00
62072;DHT22;48031;48.542;13.232;2022-08-05T07:50:08;26.20;1.00
62072;DHT22;48031;48.542;13.232;2022-08-05T07:52:38;26.00;1.00
62072;DHT22;48031;48.542;13.232;2022-08-05T07:55:06;25.60;1.00
62072;DHT22;48031;48.542;13.232;2022-08-05T07:57:53;25.60;1.00
62072;DHT22;48031;48.542;13.232;2022-08-05T08:00:28;23.80;1.00
62072;DHT22;48031;48.542;13.232;2022-08-05T08:02:56;26.40;1.00
62072;DHT22;48031;48.542;13.232;2022-08-05T08:05:41;25.30;1.00
62072;DHT22;48031;48.542;13.232;2022-08-05T08:08:15;26.60;1.00
62072;DHT22;48031;48.542;13.232;2022-08-05T08:10:45;23.30;1.00
62072;DHT22;48031;48.542;13.232;2022-08-05T08:13:14;26.20;1.00
62072;DHT22;48031;48.542;13.232;2022-08-05T08:15:55;24.10;1.00
62072;DHT22;48031;48.542;13.232;2022-08-05T08:18:42;27.00;1.00
62072;DHT22;48031;48.542;13.232;2022-08-05T08:21:15;26.90;1.00
62072;DHT22;48031;48.542;13.232;2022-08-05T08:23:43;27.40;1.00
62072;DHT22;48031;48.542;13.232;2022-08-05T08:26:30;26.50;1.00
62072;DHT22;48031;48.542;13.232;2022-08-05T08:28:58;27.30;1.00
62072;DHT22;48031;48.542;13.232;2022-08-05T08:31:45;27.50;1.00
62072;DHT22;48031;48.542;13.232;2022-08-05T08:34:14;26.40;1.00
62072;DHT22;48031;48.542;13.232;2022-08-05T08:36:44;27.30;1.00
62072;DHT22;48031;48.542;13.232;2022-08-05T08:39:18;26.80;1.00
62072;DHT22;48031;48.542;13.232;2022-08-05T08:41:48;26.30;1.00
62072;DHT22;48031;48.542;13.232;2022-08-05T08:44:28;27.50;1.00
62072;DHT22;48031;48.542;13.232;2022-08-05T08:47:15;24.70;1.00
62072;DHT22;48031;48.542;13.232;2022-08-05T08:50:04;28.00;1.00
62072;DHT22;48031;48.542;13.232;2022-08-05T08:52:52;25.20;1.00
62072;DHT22;48031;48.542;13.232;2022-08-05T08:55:21;27.00;1.00
62072;DHT22;48031;48.542;13.232;2022-08-05T08:58:08;28.00;1.00
62072;DHT22;48031;48.542;13.232;2022-08-05T09:00:39;26.20;1.00
62072;DHT22;48031;48.542;13.232;2022-08-05T09:03:08;28.40;1.00
62072;DHT22;48031;48.542;13.232;2022-08-05T09:05:35;27.60;1.00
62072;DHT22;48031;48.542;13.232;2022-08-05T09:08:22;27.50;1.00
62072;DHT22;48031;48.542;13.232;2022-08-05T09:10:56;27.30;1.00
62072;DHT22;48031;48.542;13.232;2022-08-05T09:13:23;27.90;1.00
62072;DHT22;48031;48.542;13.232;2022-08-05T09:15:57;27.50;1.00
62072;DHT22;48031;48.542;13.232;2022-08-05T09:18:24;28.90;1.00
62072;DHT22;48031;48.542;13.232;2022-08-05T09:20:51;28.60;1.00
62072;DHT22;48031;48.542;13.232;2022-08-05T09:23:18;27.80;1.00
62072;DHT22;48031;48.542;13.232;2022-08-05T09:25:48;28.30;1.00
62072;DHT22;48031;48.542;13.232;2022-08-05T09:28:29;28.90;1.00
62072;DHT22;48031;48.542;13.232;2022-08-05T09:31:09;28.20;1.00
62072;DHT22;48031;48.542;13.232;2022-08-05T09:33:58;28.50;1.00
62072;DHT22;48031;48.542;13.232;2022-08-05T09:36:40;28.80;1.00
62072;DHT22;48031;48.542;13.232;2022-08-05T09:39:24;28.50;1.00
62072;DHT22;48031;48.542;13.232;2022-08-05T09:42:10;29.00;1.00
62072;DHT22;48031;48.542;13.232;2022-08-05T09:44:50;29.40;1.00
62072;DHT22;48031;48.542;13.232;2022-08-05T09:49:53;29.40;1.00
62072;DHT22;48031;48.542;13.232;2022-08-05T09:52:29;29.80;1.00
62072;DHT22;48031;48.542;13.232;2022-08-05T09:55:03;28.10;1.00
62072;DHT22;48031;48.542;13.232;2022-08-05T09:57:50;30.10;1.00
62072;DHT22;48031;48.542;13.232;2022-08-05T10:00:21;29.00;1.00
62072;DHT22;48031;48.542;13.232;2022-08-05T10:02:52;29.70;1.00
62072;DHT22;48031;48.542;13.232;2022-08-05T10:05:24;31.60;1.00
62072;DHT22;48031;48.542;13.232;2022-08-05T10:07:56;34.10;1.00
62072;DHT22;48031;48.542;13.232;2022-08-05T10:13:10;37.50;1.00
62072;DHT22;48031;48.542;13.232;2022-08-05T10:15:40;38.10;1.00
62072;DHT22;48031;48.542;13.232;2022-08-05T10:18:11;39.40;1.00
62072;DHT22;48031;48.542;13.232;2022-08-05T10:20:48;40.40;1.00
62072;DHT22;48031;48.542;13.232;2022-08-05T10:23:19;41.30;1.00
62072;DHT22;48031;48.542;13.232;2022-08-05T10:26:08;41.50;1.00
62072;DHT22;48031;48.542;13.232;2022-08-05T10:28:41;42.30;1.00
62072;DHT22;48031;48.542;13.232;2022-08-05T10:31:09;42.80;1.00
62072;DHT22;48031;48.542;13.232;2022-08-05T10:33:57;43.20;1.00
62072;DHT22;48031;48.542;13.232;2022-08-05T10:36:26;43.60;1.00
62072;DHT22;48031;48.542;13.232;2022-08-05T10:38:55;43.30;1.00
62072;DHT22;48031;48.542;13.232;2022-08-05T10:41:34;43.20;1.00
62072;DHT22;48031;48.542;13.232;2022-08-05T10:44:15;42.60;1.00
62072;DHT22;48031;48.542;13.232;2022-08-05T10:46:49;41.70;1.00
62072;DHT22;48031;48.542;13.232;2022-08-05T10:49:20;41.80;1.00
62072;DHT22;48031;48.542;13.232;2022-08-05T10:51:58;41.10;1.00
62072;DHT22;48031;48.542;13.232;2022-08-05T10:54:48;42.40;1.00
62072;DHT22;48031;48.542;13.232;2022-08-05T10:57:27;43.80;1.00
62072;DHT22;48031;48.542;13.232;2022-08-05T11:08:31;46.80;1.00
62072;DHT22;48031;48.542;13.232;2022-08-05T11:11:30;47.60;1.00
62072;DHT22;48031;48.542;13.232;2022-08-05T11:14:07;47.50;1.00
62072;DHT22;48031;48.542;13.232;2022-08-05T11:16:37;47.40;1.00
62072;DHT22;48031;48.542;13.232;2022-08-05T11:19:24;47.90;1.00
62072;DHT22;48031;48.542;13.232;2022-08-05T11:22:57;48.30;1.00
62072;DHT22;48031;48.542;13.232;2022-08-05T11:33:36;44.00;1.00
62072;DHT22;48031;48.542;13.232;2022-08-05T11:36:16;46.60;1.00
62072;DHT22;48031;48.542;13.232;2022-08-05T11:39:04;48.00;1.00
62072;DHT22;48031;48.542;13.232;2022-08-05T11:41:31;48.80;1.00
62072;DHT22;48031;48.542;13.232;2022-08-05T11:44:20;48.50;1.00
62072;DHT22;48031;48.542;13.232;2022-08-05T11:47:08;49.00;1.00
62072;DHT22;48031;48.542;13.232;2022-08-05T11:49:44;49.80;1.00
62072;DHT22;48031;48.542;13.232;2022-08-05T11:52:26;50.30;1.00
62072;DHT22;48031;48.542;13.232;2022-08-05T11:54:56;49.40;1.00
62072;DHT22;48031;48.542;13.232;2022-08-05T11:57:29;50.10;1.00
62072;DHT22;48031;48.542;13.232;2022-08-05T12:00:26;49.50;1.00
62072;DHT22;48031;48.542;13.232;2022-08-05T12:02:54;48.90;1.00
62072;DHT22;48031;48.542;13.232;2022-08-05T12:05:25;48.60;1.00
62072;DHT22;48031;48.542;13.232;2022-08-05T12:08:05;48.90;1.00
62072;DHT22;48031;48.542;13.232;2022-08-05T12:10:37;49.60;1.00
62072;DHT22;48031;48.542;13.232;2022-08-05T12:13:15;50.40;1.00
62072;DHT22;48031;48.542;13.232;2022-08-05T12:16:08;50.40;1.00
62072;DHT22;48031;48.542;13.232;2022-08-05T12:18:44;50.60;1.00
62072;DHT22;48031;48.542;13.232;2022-08-05T12:22:01;50.70;1.00
62072;DHT22;48031;48.542;13.232;2022-08-05T12:24:12;51.30;1.00
62072;DHT22;48031;48.542;13.232;2022-08-05T12:26:44;52.70;1.00
62072;DHT22;48031;48.542;13.232;2022-08-05T12:31:55;52.20;1.00
62072;DHT22;48031;48.542;13.232;2022-08-05T12:34:23;52.60;1.00
62072;DHT22;48031;48.542;13.232;2022-08-05T12:36:55;50.80;1.00
62072;DHT22;48031;48.542;13.232;2022-08-05T12:39:22;51.20;1.00
62072;DHT22;48031;48.542;13.232;2022-08-05T12:42:00;50.20;1.00
62072;DHT22;48031;48.542;13.232;2022-08-05T12:44:28;51.00;1.00
62072;DHT22;48031;48.542;13.232;2022-08-05T12:47:00;52.20;1.00
62072;DHT22;48031;48.542;13.232;2022-08-05T12:49:40;52.10;1.00
62072;DHT22;48031;48.542;13.232;2022-08-05T12:52:28;52.50;1.00
62072;DHT22;48031;48.542;13.232;2022-08-05T12:55:19;52.40;1.00
62072;DHT22;48031;48.542;13.232;2022-08-05T12:57:49;51.20;1.00
62072;DHT22;48031;48.542;13.232;2022-08-05T13:00:40;50.00;1.00
62072;DHT22;48031;48.542;13.232;2022-08-05T13:03:27;51.80;1.00
62072;DHT22;48031;48.542;13.232;2022-08-05T13:05:59;50.20;1.00
62072;DHT22;48031;48.542;13.232;2022-08-05T13:08:27;50.40;1.00
62072;DHT22;48031;48.542;13.232;2022-08-05T13:11:00;51.90;1.00
62072;DHT22;48031;48.542;13.232;2022-08-05T13:13:28;51.40;1.00
62072;DHT22;48031;48.542;13.232;2022-08-05T13:16:15;51.90;1.00
62072;DHT22;48031;48.542;13.232;2022-08-05T13:18:52;52.00;1.00
62072;DHT22;48031;48.542;13.232;2022-08-05T13:21:25;51.60;1.00
62072;DHT22;48031;48.542;13.232;2022-08-05T13:24:04;50.80;1.00
62072;DHT22;48031;48.542;13.232;2022-08-05T13:26:34;52.20;1.00
62072;DHT22;48031;48.542;13.232;2022-08-05T13:29:01;51.70;1.00
62072;DHT22;48031;48.542;13.232;2022-08-05T13:31:31;53.10;1.00
62072;DHT22;48031;48.542;13.232;2022-08-05T13:34:18;51.60;1.00
62072;DHT22;48031;48.542;13.232;2022-08-05T13:36:52;52.80;1.00
62072;DHT22;48031;48.542;13.232;2022-08-05T13:42:06;55.30;1.00
62072;DHT22;48031;48.542;13.232;2022-08-05T13:44:43;54.50;1.00
62072;DHT22;48031;48.542;13.232;2022-08-05T13:47:12;54.90;1.00
62072;DHT22;48031;48.542;13.232;2022-08-05T13:49:59;54.00;1.00
62072;DHT22;48031;48.542;13.232;2022-08-05T13:52:30;53.10;1.00
62072;DHT22;48031;48.542;13.232;2022-08-05T13:55:02;51.50;1.00
62072;DHT22;48031;48.542;13.232;2022-08-05T13:57:35;49.10;1.00
62072;DHT22;48031;48.542;13.232;2022-08-05T14:00:18;47.00;1.00
62072;DHT22;48031;48.542;13.232;2022-08-05T14:02:56;45.20;1.00
62072;DHT22;48031;48.542;13.232;2022-08-05T14:05:27;44.10;1.00
62072;DHT22;48031;48.542;13.232;2022-08-05T14:08:14;43.70;1.00
62072;DHT22;48031;48.542;13.232;2022-08-05T14:10:54;43.80;1.00
62072;DHT22;48031;48.542;13.232;2022-08-05T14:13:41;43.40;1.00
62072;DHT22;48031;48.542;13.232;2022-08-05T14:16:08;42.60;1.00
62072;DHT22;48031;48.542;13.232;2022-08-05T14:18:42;42.20;1.00
62072;DHT22;48031;48.542;13.232;2022-08-05T14:21:09;41.90;1.00
62072;DHT22;48031;48.542;13.232;2022-08-05T14:23:56;41.20;1.00
62072;DHT22;48031;48.542;13.232;2022-08-05T14:26:26;40.90;1.00
62072;DHT22;48031;48.542;13.232;2022-08-05T14:29:09;40.80;1.00
62072;DHT22;48031;48.542;13.232;2022-08-05T14:31:44;41.40;1.00
62072;DHT22;48031;48.542;13.232;2022-08-05T14:34:31;40.90;1.00
62072;DHT22;48031;48.542;13.232;2022-08-05T14:37:02;42.00;1.00
62072;DHT22;48031;48.542;13.232;2022-08-05T14:39:30;44.90;1.00
62072;DHT22;48031;48.542;13.232;2022-08-05T14:42:17;46.40;1.00
62072;DHT22;48031;48.542;13.232;2022-08-05T14:44:55;46.70;1.00
62072;DHT22;48031;48.542;13.232;2022-08-05T14:47:22;46.50;1.00
62072;DHT22;48031;48.542;13.232;2022-08-05T14:50:09;46.80;1.00
62072;DHT22;48031;48.542;13.232;2022-08-05T14:52:44;45.40;1.00
62072;DHT22;48031;48.542;13.232;2022-08-05T14:55:22;42.60;1.00
62072;DHT22;48031;48.542;13.232;2022-08-05T14:57:50;44.40;1.00
62072;DHT22;48031;48.542;13.232;2022-08-05T15:00:22;42.60;1.00
62072;DHT22;48031;48.542;13.232;2022-08-05T15:02:54;41.80;1.00
62072;DHT22;48031;48.542;13.232;2022-08-05T15:05:21;41.50;1.00
62072;DHT22;48031;48.542;13.232;2022-08-05T15:08:08;40.90;1.00
62072;DHT22;48031;48.542;13.232;2022-08-05T15:10:55;40.40;1.00
62072;DHT22;48031;48.542;13.232;2022-08-05T15:13:23;39.10;1.00
62072;DHT22;48031;48.542;13.232;2022-08-05T15:16:10;39.20;1.00
62072;DHT22;48031;48.542;13.232;2022-08-05T15:18:38;38.90;1.00
62072;DHT22;48031;48.542;13.232;2022-08-05T15:21:06;38.60;1.00
62072;DHT22;48031;48.542;13.232;2022-08-05T15:23:34;38.20;1.00
62072;DHT22;48031;48.542;13.232;2022-08-05T15:26:03;38.00;1.00
62072;DHT22;48031;48.542;13.232;2022-08-05T15:28:30;37.50;1.00
62072;DHT22;48031;48.542;13.232;2022-08-05T15:30:57;36.90;1.00
62072;DHT22;48031;48.542;13.232;2022-08-05T15:33:24;36.60;1.00
62072;DHT22;48031;48.542;13.232;2022-08-05T15:36:11;36.90;1.00
62072;DHT22;48031;48.542;13.232;2022-08-05T15:38:50;36.00;1.00
62072;DHT22;48031;48.542;13.232;2022-08-05T15:41:37;36.40;1.00
62072;DHT22;48031;48.542;13.232;2022-08-05T15:44:24;35.00;1.00
62072;DHT22;48031;48.542;13.232;2022-08-05T15:46:53;35.20;1.00
62072;DHT22;48031;48.542;13.232;2022-08-05T15:49:21;35.30;1.00
62072;DHT22;48031;48.542;13.232;2022-08-05T15:52:07;35.30;1.00
62072;DHT22;48031;48.542;13.232;2022-08-05T15:54:54;34.90;1.00
62072;DHT22;48031;48.542;13.232;2022-08-05T15:57:22;34.70;1.00
62072;DHT22;48031;48.542;13.232;2022-08-05T15:59:49;34.60;1.00
62072;DHT22;48031;48.542;13.232;2022-08-05T16:02:23;34.50;1.00
62072;DHT22;48031;48.542;13.232;2022-08-05T16:04:51;34.30;1.00
62072;DHT22;48031;48.542;13.232;2022-08-05T16:07:18;34.10;1.00
62072;DHT22;48031;48.542;13.232;2022-08-05T16:09:48;34.00;1.00
62072;DHT22;48031;48.542;13.232;2022-08-05T16:12:15;33.60;1.00
62072;DHT22;48031;48.542;13.232;2022-08-05T16:14:45;33.70;1.00
62072;DHT22;48031;48.542;13.232;2022-08-05T16:17:12;33.80;1.00
62072;DHT22;48031;48.542;13.232;2022-08-05T16:19:39;33.80;1.00
62072;DHT22;48031;48.542;13.232;2022-08-05T16:22:26;33.50;1.00
62072;DHT22;48031;48.542;13.232;2022-08-05T16:25:00;34.40;1.00
62072;DHT22;48031;48.542;13.232;2022-08-05T16:27:36;33.40;1.00
62072;DHT22;48031;48.542;13.232;2022-08-05T16:30:23;33.30;1.00
62072;DHT22;48031;48.542;13.232;2022-08-05T16:32:54;33.30;1.00
62072;DHT22;48031;48.542;13.232;2022-08-05T16:35:21;33.20;1.00
62072;DHT22;48031;48.542;13.232;2022-08-05T16:37:59;34.50;1.00
62072;DHT22;48031;48.542;13.232;2022-08-05T16:40:46;32.90;1.00
62072;DHT22;48031;48.542;13.232;2022-08-05T16:43:21;32.90;1.00
62072;DHT22;48031;48.542;13.232;2022-08-05T16:45:50;33.00;1.00
62072;DHT22;48031;48.542;13.232;2022-08-05T16:48:37;32.70;1.00
62072;DHT22;48031;48.542;13.232;2022-08-05T16:51:05;33.10;1.00
62072;DHT22;48031;48.542;13.232;2022-08-05T16:53:37;32.40;1.00
62072;DHT22;48031;48.542;13.232;2022-08-05T16:56:25;31.90;1.00
62072;DHT22;48031;48.542;13.232;2022-08-05T16:58:52;33.60;1.00
62072;DHT22;48031;48.542;13.232;2022-08-05T17:01:20;32.60;1.00
62072;DHT22;48031;48.542;13.232;2022-08-05T17:03:49;32.20;1.00
62072;DHT22;48031;48.542;13.232;2022-08-05T17:06:17;31.00;1.00
62072;DHT22;48031;48.542;13.232;2022-08-05T17:08:44;32.70;1.00
62072;DHT22;48031;48.542;13.232;2022-08-05T17:11:19;32.00;1.00
62072;DHT22;48031;48.542;13.232;2022-08-05T17:13:50;31.80;1.00